KDAA/DAA METAR and TAF weather

Enter ICAO airport designator
Station Type Date Time Source
KDAA METAR 2021/07/29 17:56 UTC NOAA

KDAA 291756Z AUTO 18004KT 10SM CLR 29/22 A2991 RMK AO2 SLP131 T02920224 10304 20228 57023 $


Station Type Date Time Source
KDAA Decoded METAR 2021/07/29 17:56 UTC NOAA

Fort Belvoir, VA, United States (KDAA) 38-43N 077-11W
Jul 29, 2021 - 01:56 PM EDT / 2021.07.29 1756 UTC
Wind: from the S (180 degrees) at 5 MPH (4 KT):0
Visibility: 10 mile(s):0
Sky conditions: clear
Temperature: 84.6 F (29.2 C)
Dew Point: 72.3 F (22.4 C)
Relative Humidity: 66%
Pressure (altimeter): 29.91 in. Hg (1012 hPa)
Pressure tendency: 0.07 inches (2.3 hPa) lower than three hours ago
ob: KDAA 291756Z AUTO 18004KT 10SM CLR 29/22 A2991 RMK AO2 SLP131 T02920224 10304 20228 57023
cycle: 18

Station Type Date Time Source
KDAA TAF 2021/07/29 12:06 UTC NOAA

TAF TAF COR KDAA 291201Z 2912/3018 19007KT 9999 FEW050 SCT120 BKN200 QNH2984INS
TEMPO 2912/2914 6000 BR BKN008
BECMG 2919/2920 20010KT 8000 -SHRA VCTS FEW040CB BKN050 BKN120 BKN250 QNH2974INS
TEMPO 2921/2924 VRB30G40KT 1600 +TSRA BKN015CB OVC080
BECMG 3001/3002 VRB06KT 9999 -SHRA VCTS FEW035CB SCT050 BKN120 BKN250 QNH2972INS
BECMG 3004/3005 30012G20KT 9999 NSW FEW120 SCT250 QNH2972INS TX31/2920Z TN21/3011Z

Example: see airport list